FRIANT DAM (MILLERTON) (MIL)

Elevation: 581' · SAN JOAQUIN R basin · Operator: US Bureau of Reclamation

Provisional data, subject to change.
Query executed Friday at 12:06:03   clock

Select a sensor type for a plot of data.
Note: Reservoir Flows are daily averages.

Earlier

Date RES ELE    STORAGE    RES CHG    TOC STO    ABV TOC    OUTFLOW    INFLOW    EVAP    FNF    RIV REL    PPT INC    SPILL   
 FEET   AF   AF   AF   AF   CFS   CFS   CFS   CFS   CFS   INCHES   CFS  
04/23/2015 492.75 194969 -717 520500 -325531 350 9 20 623 197 0.00 0
04/24/2015 492.53 194362 -607 520500 -326138 349 69 26 641 197 0.44 0
04/25/2015 492.38 193948 -414 520500 -326552 349 155 15 1073 197 0.48 0
04/26/2015 492.18 193396 -552 520500 -327104 281 21 18 846 196 0.01 0
04/27/2015 492.05 193038 -358 520500 -327462 206 49 23 1133 206 0.00 0
04/28/2015 491.92 192681 -357 520500 -327819 205 50 25 1261 205 0.00 0
04/29/2015 491.93 192709 28 520500 -327791 205 241 22 1309 205 0.00 0
04/30/2015 491.84 192462 -247 520500 -328038 205 110 30 1397 205 0.00 0
05/01/2015 491.71 192107 -355 520500 -328393 205 60 34 1277 205 0.00 0
05/02/2015 491.59 191779 -328 520500 -328721 205 74 34 1371 205 0.00 0
05/03/2015 491.46 191423 -356 520500 -329077 205 53 27 1422 205 0.00 0
05/04/2015 491.24 190821 -602 520500 -329679 298 20 26 1322 205 0.00 0
05/05/2015 491.00 190165 -656 520500 -330335 353 53 31 1117 205 0.00 0
05/06/2015 490.75 189488 -677 520500 -331012 352 27 16 934 205 0.01 0
05/07/2015 490.51 188837 -651 520500 -331663 359 44 13 972 212 0.24 0
05/08/2015 490.26 188160 -677 520500 -332340 366 32 7 1076 220 0.00 0
05/09/2015 490.04 187563 -597 520500 -332937 305 21 17 1113 220 0.00 0
05/10/2015 489.91 187214 -349 520500 -333286 220 68 24 1147 220 0.00 0
05/11/2015 489.75 186785 -429 520500 -333715 220 29 25 1179 220 0.00 0
05/12/2015 489.59 186357 -428 520500 -334143 220 34 30 972 220 0.00 0
05/13/2015 489.45 185982 -375 520500 -334518 219 51 21 929 219 0.00 0
05/14/2015 489.31 185606 -376 520500 -334894 219 39 10 808 219 0.02 0
05/15/2015 489.17 185231 -375 520500 -335269 219 47 17 969 219 0.02 0
05/16/2015 489.04 184883 -348 520500 -335617 219 61 17 841 219 0.00 0
05/17/2015 488.91 184537 -346 520500 -335963 219 60 15 787 219 0.03 0
05/18/2015 488.71 184006 -531 520500 -336494 319 72 21 1117 219 0.00 0
05/19/2015 488.47 183369 -637 520500 -337131 360 60 21 794 219 0.00 0
05/20/2015 488.21 182679 -690 520500 -337821 359 32 21 635 219 0.00 0
05/21/2015 488.04 182227 -452 520500 -338273 266 48 10 1217 219 0.00 0
05/22/2015 -- -- -- -- -- -- -- -- -- -- -- --

Later | Latest

Warning! This data is preliminary and subject to revision.

Show MIL Map | Plot MIL Data | 1 Month MIL Data | Real-Time MIL Data | MIL Info